Time;durP1;ratioP1;P1;durP2;ratioP2;P2;SDS_P1;SDS_P2;PMS_P1;PMS_P2;Temp;Humidity;BMP_temperature;BMP_pressure;BME280_temperature;BME280_humidity;BME280_pressure;Samples;Min_cycle;Max_cycle;Signal;HPM_P1;HPM_P2
2022/06/01 00:01:10;;;;;;;0.40;0.40;;;12.50;99.90;;;;;;5096244;28;20044;-71
2022/06/01 00:03:37;;;;;;;0.30;0.30;;;12.50;99.90;;;;;;5096198;28;20079;-70
2022/06/01 00:06:04;;;;;;;0.50;0.50;;;12.50;99.90;;;;;;5096100;28;20622;-70
2022/06/01 00:08:29;;;;;;;0.30;0.30;;;12.40;99.90;;;;;;5096084;28;20048;-73
2022/06/01 00:10:57;;;;;;;0.40;0.40;;;12.50;99.90;;;;;;5096286;28;20059;-74
2022/06/01 00:13:23;;;;;;;0.35;0.35;;;12.50;99.90;;;;;;5096012;28;20048;-73
2022/06/01 00:15:49;;;;;;;0.30;0.30;;;12.40;99.90;;;;;;5096006;28;20051;-72
2022/06/01 00:18:15;;;;;;;0.30;0.30;;;12.40;99.90;;;;;;5096551;28;20040;-74
2022/06/01 00:20:42;;;;;;;0.70;0.70;;;12.30;99.90;;;;;;5096106;28;20051;-70
2022/06/01 00:23:08;;;;;;;0.38;0.38;;;12.30;99.90;;;;;;5095528;28;20047;-73
2022/06/01 00:25:34;;;;;;;0.40;0.40;;;12.30;99.90;;;;;;5096020;28;20043;-73
2022/06/01 00:27:59;;;;;;;0.40;0.40;;;12.30;99.90;;;;;;5095912;28;20094;-72
2022/06/01 00:30:26;;;;;;;0.40;0.40;;;12.30;99.90;;;;;;5095154;28;20086;-71
2022/06/01 00:32:52;;;;;;;0.50;0.50;;;12.40;99.90;;;;;;5095931;28;20036;-70
2022/06/01 00:35:21;;;;;;;0.30;0.30;;;12.30;99.90;;;;;;5095989;28;20050;-71
2022/06/01 00:37:47;;;;;;;0.40;0.40;;;12.30;99.90;;;;;;5095921;28;20058;-70
2022/06/01 00:40:15;;;;;;;0.40;0.40;;;12.20;99.90;;;;;;5097216;28;20048;-70
2022/06/01 00:42:44;;;;;;;0.43;0.43;;;12.20;99.90;;;;;;5099448;28;20044;-70
2022/06/01 00:45:13;;;;;;;0.40;0.40;;;12.30;99.90;;;;;;5099225;28;20043;-72
2022/06/01 00:47:39;;;;;;;0.40;0.40;;;12.20;99.90;;;;;;5095141;28;20132;-70
2022/06/01 00:50:13;;;;;;;0.40;0.40;;;12.40;99.90;;;;;;5095290;28;20085;-71
2022/06/01 00:52:45;;;;;;;0.32;0.32;;;12.20;99.90;;;;;;5095595;28;20091;-75
2022/06/01 00:55:11;;;;;;;0.30;0.30;;;12.20;99.90;;;;;;5095306;28;20096;-73
2022/06/01 00:57:38;;;;;;;0.40;0.40;;;12.20;99.90;;;;;;5095338;28;20142;-71
2022/06/01 01:00:09;;;;;;;0.40;0.40;;;12.20;99.90;;;;;;5095143;28;20047;-73
2022/06/01 01:02:36;;;;;;;0.40;0.40;;;12.20;99.90;;;;;;5095123;28;20048;-71
2022/06/01 01:05:04;;;;;;;0.40;0.40;;;12.20;99.90;;;;;;5095470;28;20051;-73
2022/06/01 01:07:30;;;;;;;0.40;0.40;;;12.20;99.90;;;;;;5096291;28;20076;-75
2022/06/01 01:09:56;;;;;;;1.23;1.17;;;12.20;99.90;;;;;;5095216;28;20499;-74
2022/06/01 01:12:23;;;;;;;0.40;0.40;;;12.10;99.90;;;;;;5098043;28;20075;-71
2022/06/01 01:14:49;;;;;;;0.32;0.32;;;12.10;99.90;;;;;;5097100;28;20047;-75
2022/06/01 01:17:15;;;;;;;0.30;0.30;;;12.10;99.90;;;;;;5095405;28;20040;-71
2022/06/01 01:19:48;;;;;;;0.50;0.50;;;12.00;99.90;;;;;;5094809;28;20044;-75
2022/06/01 01:22:43;;;;;;;0.40;0.40;;;12.00;99.90;;;;;;5094730;28;20044;-72
2022/06/01 01:25:16;;;;;;;0.40;0.40;;;12.00;99.90;;;;;;5094673;28;20048;-72
2022/06/01 01:27:43;;;;;;;0.40;0.40;;;11.90;99.90;;;;;;5094954;28;20040;-69
2022/06/01 01:30:39;;;;;;;0.40;0.40;;;11.90;99.90;;;;;;5093296;28;20044;-72
2022/06/01 01:33:18;;;;;;;0.40;0.40;;;11.90;99.90;;;;;;5093741;28;20056;-70
2022/06/01 01:35:48;;;;;;;0.60;0.60;;;11.80;99.90;;;;;;5094527;28;20104;-73
2022/06/01 01:38:49;;;;;;;0.47;0.47;;;11.80;99.90;;;;;;5094759;28;20502;-72
2022/06/01 01:41:23;;;;;;;1.17;0.93;;;11.80;99.90;;;;;;5068814;28;20044;-74
2022/06/01 01:43:57;;;;;;;0.50;0.50;;;11.70;99.90;;;;;;5094308;28;20051;-71
2022/06/01 01:46:23;;;;;;;0.32;0.32;;;11.80;99.90;;;;;;5094358;28;20051;-76
2022/06/01 01:48:49;;;;;;;0.40;0.40;;;11.80;99.90;;;;;;5093635;28;20377;-75
2022/06/01 01:51:21;;;;;;;0.40;0.40;;;11.80;99.90;;;;;;5092815;28;20051;-75
2022/06/01 01:53:47;;;;;;;0.57;0.57;;;11.80;99.90;;;;;;5094163;28;20530;-74
2022/06/01 01:56:46;;;;;;;0.52;0.52;;;11.80;99.90;;;;;;5094091;28;20127;-74
2022/06/01 01:59:47;;;;;;;0.40;0.40;;;11.80;99.90;;;;;;5094175;28;20043;-73
2022/06/01 02:02:24;;;;;;;0.40;0.40;;;11.80;99.90;;;;;;5094222;28;20063;-71
2022/06/01 02:08:48;;;;;;;0.60;0.60;;;11.70;99.90;;;;;;5093973;28;20134;-72
2022/06/01 02:14:10;;;;;;;0.45;0.45;;;11.70;99.90;;;;;;5093603;28;20496;-73
2022/06/01 02:16:43;;;;;;;0.40;0.40;;;11.70;99.90;;;;;;5093893;28;20122;-71
2022/06/01 02:19:14;;;;;;;0.93;0.73;;;11.60;99.90;;;;;;5093881;28;20044;-71
2022/06/01 02:21:39;;;;;;;0.40;0.40;;;11.60;99.90;;;;;;5093800;28;20043;-72
2022/06/01 02:24:06;;;;;;;0.40;0.40;;;11.60;99.90;;;;;;5109908;28;20047;-72
2022/06/01 02:26:33;;;;;;;0.40;0.40;;;11.60;99.90;;;;;;5093881;28;20040;-71
2022/06/01 02:29:03;;;;;;;;;;;11.60;99.90;;;;;;5094101;28;20816;-73
2022/06/01 02:31:30;;;;;;;0.57;0.57;;;11.50;99.90;;;;;;5093836;28;19920;-69
2022/06/01 02:33:56;;;;;;;;;;;11.50;99.90;;;;;;5094060;28;20051;-74
2022/06/01 02:36:25;;;;;;;0.77;0.77;;;11.50;99.90;;;;;;5093625;28;19920;-73
2022/06/01 02:38:52;;;;;;;0.60;0.60;;;11.40;99.90;;;;;;5093676;28;20076;-74
2022/06/01 02:44:03;;;;;;;0.40;0.40;;;11.40;99.90;;;;;;5093696;28;20109;-71
2022/06/01 02:46:29;;;;;;;1.98;1.52;;;11.40;99.90;;;;;;5093571;28;20040;-71
2022/06/01 02:48:55;;;;;;;4.70;1.55;;;11.40;99.90;;;;;;5093579;28;20044;-71
2022/06/01 02:51:22;;;;;;;0.50;0.50;;;11.40;99.90;;;;;;5093341;28;20063;-74
2022/06/01 02:53:48;;;;;;;0.40;0.40;;;11.40;99.90;;;;;;5097420;28;20048;-71
2022/06/01 02:56:14;;;;;;;0.40;0.40;;;11.40;99.90;;;;;;5097769;28;20059;-73
2022/06/01 02:58:40;;;;;;;0.87;0.87;;;11.40;99.90;;;;;;5097159;28;20036;-72
2022/06/01 03:01:06;;;;;;;0.73;0.73;;;11.40;99.90;;;;;;5097339;28;20047;-75
2022/06/01 03:03:33;;;;;;;3.20;0.70;;;11.40;99.90;;;;;;5097614;28;20381;-76
2022/06/01 03:05:59;;;;;;;;;;;11.40;99.90;;;;;;5097743;28;20036;-74
2022/06/01 03:08:25;;;;;;;0.82;0.82;;;11.40;99.90;;;;;;5097439;28;19920;-71
2022/06/01 03:10:51;;;;;;;0.55;0.55;;;11.40;99.90;;;;;;5096921;28;20060;-72
2022/06/01 03:13:18;;;;;;;0.50;0.50;;;11.50;99.90;;;;;;5097357;28;20054;-72
2022/06/01 03:15:44;;;;;;;0.50;0.50;;;11.50;99.90;;;;;;5096126;28;20048;-75
2022/06/01 03:18:09;;;;;;;1.52;1.42;;;11.50;99.90;;;;;;5096822;28;20054;-75
2022/06/01 03:20:36;;;;;;;1.65;1.55;;;11.40;99.90;;;;;;5097041;28;20097;-72
2022/06/01 03:23:02;;;;;;;0.50;0.50;;;11.50;99.90;;;;;;5096929;28;20044;-72
2022/06/01 03:25:28;;;;;;;0.93;0.85;;;11.50;99.90;;;;;;5096968;28;20046;-71
2022/06/01 03:27:57;;;;;;;0.85;0.55;;;11.40;99.90;;;;;;5096942;28;20044;-72
2022/06/01 03:30:24;;;;;;;0.40;0.40;;;11.50;99.90;;;;;;5096530;28;20119;-75
2022/06/01 03:32:50;;;;;;;1.30;1.23;;;11.40;99.90;;;;;;5096730;28;20042;-71
2022/06/01 03:35:19;;;;;;;0.70;0.70;;;11.40;99.90;;;;;;5096759;28;20056;-74
2022/06/01 03:37:45;;;;;;;0.80;0.80;;;11.40;99.90;;;;;;5096710;28;20047;-76
2022/06/01 03:40:12;;;;;;;0.85;0.85;;;11.40;99.90;;;;;;5096729;28;20051;-71
2022/06/01 03:42:37;;;;;;;0.40;0.40;;;11.40;99.90;;;;;;5096397;28;20123;-71
2022/06/01 03:47:49;;;;;;;0.50;0.50;;;11.40;99.90;;;;;;5096490;28;20135;-72
2022/06/01 03:50:17;;;;;;;0.60;0.60;;;11.40;99.90;;;;;;5096603;28;20404;-70
2022/06/01 03:52:45;;;;;;;0.40;0.40;;;11.70;99.90;;;;;;5096635;28;20283;-71
2022/06/01 03:55:11;;;;;;;1.30;0.40;;;11.40;99.90;;;;;;5096244;28;20044;-72
2022/06/01 03:57:37;;;;;;;0.40;0.40;;;11.30;99.90;;;;;;5096296;28;20181;-70
2022/06/01 04:00:05;;;;;;;0.50;0.50;;;11.40;99.90;;;;;;5096195;28;20098;-73
2022/06/01 04:02:31;;;;;;;0.65;0.65;;;11.30;99.90;;;;;;5094943;28;20048;-72
2022/06/01 04:04:58;;;;;;;0.73;0.50;;;11.30;99.90;;;;;;5095396;28;20044;-75
2022/06/01 04:07:24;;;;;;;;;;;11.30;99.90;;;;;;5096261;28;20036;-72
2022/06/01 04:09:50;;;;;;;1.35;1.25;;;11.30;99.90;;;;;;5095989;28;19981;-73
2022/06/01 04:12:16;;;;;;;0.50;0.50;;;11.30;99.90;;;;;;5096586;28;20052;-73
2022/06/01 04:14:41;;;;;;;0.50;0.50;;;11.20;99.90;;;;;;5096021;28;20095;-75
2022/06/01 04:17:07;;;;;;;0.47;0.47;;;11.20;99.90;;;;;;5095827;28;20051;-71
2022/06/01 04:19:32;;;;;;;0.40;0.40;;;11.20;99.90;;;;;;5095963;28;20392;-72
2022/06/01 04:22:00;;;;;;;0.50;0.50;;;11.20;99.90;;;;;;5095878;28;20456;-75
2022/06/01 04:24:28;;;;;;;0.40;0.40;;;11.20;99.90;;;;;;5095897;28;20084;-74
2022/06/01 04:26:54;;;;;;;0.40;0.40;;;11.20;99.90;;;;;;5095692;28;20126;-73
2022/06/01 04:29:20;;;;;;;0.63;0.63;;;11.30;99.90;;;;;;5095505;28;20399;-70
2022/06/01 04:31:46;;;;;;;0.73;0.73;;;11.20;99.90;;;;;;5095601;28;20032;-72
2022/06/01 04:34:12;;;;;;;1.95;0.80;;;11.30;99.90;;;;;;5095699;28;20036;-72
2022/06/01 04:36:38;;;;;;;0.40;0.40;;;11.30;99.90;;;;;;5095628;28;20131;-71
2022/06/01 04:39:06;;;;;;;0.57;0.57;;;11.30;99.90;;;;;;5095718;28;20185;-74
2022/06/01 04:41:33;;;;;;;0.40;0.40;;;11.30;99.90;;;;;;5095424;28;20050;-71
2022/06/01 04:43:59;;;;;;;0.40;0.40;;;11.40;99.90;;;;;;5095497;28;20472;-72
2022/06/01 04:46:25;;;;;;;0.40;0.40;;;11.70;99.90;;;;;;5095430;28;20079;-74
2022/06/01 04:48:50;;;;;;;0.40;0.40;;;11.40;99.90;;;;;;5095237;28;20083;-72
2022/06/01 04:51:16;;;;;;;0.40;0.40;;;11.40;99.90;;;;;;5095208;28;20528;-75
2022/06/01 04:53:43;;;;;;;0.43;0.43;;;11.50;99.90;;;;;;5095271;28;20051;-73
2022/06/01 04:56:11;;;;;;;0.40;0.40;;;11.50;99.90;;;;;;5095001;28;20479;-71
2022/06/01 04:58:37;;;;;;;0.85;0.85;;;11.40;99.90;;;;;;5095177;28;20043;-72
2022/06/01 05:01:03;;;;;;;0.40;0.40;;;11.50;99.90;;;;;;5095104;28;20396;-72
2022/06/01 05:03:29;;;;;;;0.50;0.50;;;11.50;99.90;;;;;;5095088;28;20046;-73
2022/06/01 05:05:54;;;;;;;0.40;0.40;;;11.70;99.90;;;;;;5095315;28;20051;-71
2022/06/01 05:08:20;;;;;;;0.40;0.40;;;11.60;99.90;;;;;;5095049;28;20089;-70
2022/06/01 05:10:46;;;;;;;0.45;0.45;;;11.60;99.90;;;;;;5094729;28;20488;-70
2022/06/01 05:13:12;;;;;;;0.40;0.40;;;11.60;99.90;;;;;;5094990;28;20387;-71
2022/06/01 05:15:50;;;;;;;0.50;0.50;;;11.60;99.90;;;;;;5094770;28;20051;-71
2022/06/01 05:18:15;;;;;;;;;;;11.60;99.90;;;;;;5095647;28;20547;-72
2022/06/01 05:20:41;;;;;;;0.40;0.40;;;11.90;99.90;;;;;;5094779;28;20010;-70
2022/06/01 05:23:07;;;;;;;0.50;0.50;;;11.70;99.90;;;;;;5094661;28;20039;-73
2022/06/01 05:25:33;;;;;;;0.93;0.93;;;11.70;99.90;;;;;;5094664;28;20085;-72
2022/06/01 05:27:58;;;;;;;0.50;0.50;;;11.80;99.90;;;;;;5094655;28;20119;-72
2022/06/01 05:30:24;;;;;;;0.30;0.30;;;11.80;99.90;;;;;;5095022;28;20047;-71
2022/06/01 05:32:49;;;;;;;0.77;0.77;;;11.80;99.90;;;;;;5110439;28;20079;-72
2022/06/01 05:35:15;;;;;;;0.65;0.65;;;11.80;99.90;;;;;;5093550;28;20479;-72
2022/06/01 05:37:40;;;;;;;0.40;0.40;;;11.80;99.90;;;;;;5094399;28;20161;-75
2022/06/01 05:40:07;;;;;;;0.88;0.88;;;12.00;99.90;;;;;;5094360;28;20067;-72
2022/06/01 05:42:32;;;;;;;1.20;1.15;;;12.00;99.90;;;;;;5094346;28;20131;-72
2022/06/01 05:44:58;;;;;;;1.20;1.10;;;12.00;99.90;;;;;;5094705;28;20128;-73
2022/06/01 05:47:24;;;;;;;0.40;0.40;;;12.00;99.90;;;;;;5093991;28;20055;-72
2022/06/01 05:49:49;;;;;;;0.55;0.55;;;12.10;99.90;;;;;;5094165;28;20043;-70
2022/06/01 05:52:18;;;;;;;0.55;0.55;;;12.20;99.90;;;;;;5094382;28;20044;-72
2022/06/01 05:54:47;;;;;;;0.50;0.50;;;12.30;99.90;;;;;;5094031;28;20050;-71
2022/06/01 05:57:13;;;;;;;0.40;0.40;;;12.40;99.90;;;;;;5094292;28;20109;-73
2022/06/01 05:59:39;;;;;;;2.17;0.98;;;12.40;99.90;;;;;;5094175;28;20113;-74
2022/06/01 06:02:07;;;;;;;0.40;0.40;;;12.50;99.90;;;;;;5094091;28;20051;-73
2022/06/01 06:04:32;;;;;;;0.40;0.40;;;12.70;99.90;;;;;;5093995;28;20044;-75
2022/06/01 06:06:58;;;;;;;0.85;0.85;;;12.80;99.90;;;;;;5093922;28;20055;-72
2022/06/01 06:09:24;;;;;;;0.45;0.45;;;13.00;99.90;;;;;;5093884;28;20044;-70
2022/06/01 06:11:52;;;;;;;0.85;0.85;;;13.10;99.90;;;;;;5094144;28;20064;-73
2022/06/01 06:14:18;;;;;;;0.50;0.50;;;13.30;99.90;;;;;;5093861;28;20048;-71
2022/06/01 06:16:45;;;;;;;0.60;0.60;;;13.50;99.90;;;;;;5093731;28;20044;-70
2022/06/01 06:19:11;;;;;;;0.65;0.65;;;13.90;99.90;;;;;;5093823;28;20059;-71
2022/06/01 06:21:38;;;;;;;;;;;14.20;99.90;;;;;;5094169;28;20066;-72
2022/06/01 06:24:15;;;;;;;1.02;1.00;;;14.50;99.90;;;;;;5092810;28;20014;-73
2022/06/01 06:26:42;;;;;;;0.45;0.45;;;14.80;99.90;;;;;;5095889;28;20386;-76
2022/06/01 06:29:10;;;;;;;0.40;0.40;;;15.00;99.90;;;;;;5100593;28;20475;-73
2022/06/01 06:31:36;;;;;;;29.92;1.65;;;14.90;99.90;;;;;;5100542;28;20040;-72
2022/06/01 06:34:02;;;;;;;0.30;0.30;;;14.80;99.90;;;;;;5100353;28;20097;-70
2022/06/01 06:36:28;;;;;;;0.52;0.43;;;14.70;99.90;;;;;;5100129;28;20438;-75
2022/06/01 06:38:53;;;;;;;1.60;1.00;;;14.60;99.90;;;;;;5100223;28;20089;-73
2022/06/01 06:41:21;;;;;;;1.65;1.27;;;14.50;99.90;;;;;;5100775;28;20400;-74
2022/06/01 06:43:47;;;;;;;0.45;0.45;;;14.50;99.90;;;;;;5100562;28;20109;-73
2022/06/01 06:46:16;;;;;;;0.40;0.40;;;14.20;99.90;;;;;;5100612;28;20403;-71
2022/06/01 06:48:43;;;;;;;0.40;0.40;;;14.30;99.90;;;;;;5100359;28;20051;-72
2022/06/01 06:51:09;;;;;;;1.00;0.80;;;14.20;99.90;;;;;;5100118;28;20109;-76
2022/06/01 06:53:35;;;;;;;1.30;1.20;;;14.20;99.90;;;;;;5100372;28;20055;-74
2022/06/01 06:56:01;;;;;;;0.63;0.63;;;14.20;99.90;;;;;;5100346;28;20039;-75
2022/06/01 06:58:27;;;;;;;0.30;0.30;;;14.10;99.90;;;;;;5100091;28;20416;-71
2022/06/01 07:00:52;;;;;;;1.23;1.20;;;14.00;99.90;;;;;;5100199;28;20531;-73
2022/06/01 07:03:18;;;;;;;0.60;0.60;;;13.90;99.90;;;;;;5100208;28;20442;-73
2022/06/01 07:08:29;;;;;;;0.40;0.40;;;13.80;99.90;;;;;;5100237;28;20117;-73
2022/06/01 07:10:57;;;;;;;0.93;0.57;;;13.80;99.90;;;;;;5099870;28;20143;-73
2022/06/01 07:13:23;;;;;;;0.40;0.40;;;13.90;99.90;;;;;;5100129;28;20126;-73
2022/06/01 07:15:58;;;;;;;1.17;1.00;;;13.90;99.90;;;;;;5100191;28;20090;-71
2022/06/01 07:18:24;;;;;;;0.30;0.30;;;13.90;99.90;;;;;;5100053;28;20044;-72
2022/06/01 07:20:50;;;;;;;0.60;0.60;;;14.00;99.90;;;;;;5100081;28;20078;-71
2022/06/01 07:23:15;;;;;;;0.35;0.35;;;14.00;99.90;;;;;;5100048;28;20044;-70
2022/06/01 07:25:41;;;;;;;0.60;0.60;;;14.10;99.90;;;;;;5099922;28;20044;-72
2022/06/01 07:28:08;;;;;;;0.60;0.60;;;14.10;99.90;;;;;;5100023;28;20133;-73
2022/06/01 07:30:34;;;;;;;0.47;0.47;;;14.20;99.90;;;;;;5099540;28;20043;-74
2022/06/01 07:32:59;;;;;;;0.57;0.57;;;14.20;99.90;;;;;;5099921;28;20040;-74
2022/06/01 07:35:25;;;;;;;0.77;0.60;;;14.40;99.90;;;;;;5099946;28;20079;-75
2022/06/01 07:43:21;;;;;;;0.43;0.43;;;14.90;99.90;;;;;;5096674;28;20126;-73
2022/06/01 07:45:48;;;;;;;1.55;1.10;;;15.10;99.90;;;;;;5096613;28;20248;-71
2022/06/01 07:48:14;;;;;;;0.77;0.77;;;15.40;99.90;;;;;;5096542;28;20093;-75
2022/06/01 07:50:40;;;;;;;0.73;0.73;;;15.70;99.90;;;;;;5096402;28;20128;-71
2022/06/01 07:53:08;;;;;;;0.40;0.40;;;15.80;99.90;;;;;;5096324;28;20122;-72
2022/06/01 07:55:35;;;;;;;0.40;0.40;;;15.90;99.90;;;;;;5096404;28;20048;-73
2022/06/01 07:58:00;;;;;;;;;;;15.90;99.90;;;;;;5096752;28;20040;-71
2022/06/01 08:00:26;;;;;;;0.40;0.40;;;16.00;99.90;;;;;;5096073;28;19920;-72
2022/06/01 08:02:52;;;;;;;0.30;0.30;;;15.90;99.90;;;;;;5096676;28;20048;-71
2022/06/01 08:05:19;;;;;;;0.30;0.30;;;16.10;99.90;;;;;;5096126;28;20491;-71
2022/06/01 08:07:45;;;;;;;0.95;0.85;;;16.20;99.90;;;;;;5096122;28;20055;-73
2022/06/01 08:10:14;;;;;;;0.40;0.40;;;16.40;99.90;;;;;;5095965;28;20122;-74
2022/06/01 08:15:26;;;;;;;0.30;0.30;;;16.80;99.90;;;;;;5096441;28;20048;-73
2022/06/01 08:17:54;;;;;;;0.30;0.30;;;17.10;99.90;;;;;;5095837;28;20506;-72
2022/06/01 08:20:20;;;;;;;0.50;0.50;;;17.00;99.90;;;;;;5095912;28;20097;-75
2022/06/01 08:22:46;;;;;;;0.63;0.63;;;16.80;99.90;;;;;;5095935;28;20052;-72
2022/06/01 08:25:16;;;;;;;0.40;0.40;;;16.90;99.90;;;;;;5095953;28;20043;-74
2022/06/01 08:27:42;;;;;;;0.30;0.30;;;16.80;99.90;;;;;;5096256;28;20368;-73
2022/06/01 08:30:08;;;;;;;2.55;0.85;;;16.80;99.90;;;;;;5095730;28;20074;-70
2022/06/01 08:32:34;;;;;;;0.68;0.52;;;17.00;99.90;;;;;;5095655;28;20047;-75
2022/06/01 08:35:01;;;;;;;0.50;0.50;;;17.40;99.90;;;;;;5095488;28;20066;-73
2022/06/01 08:37:26;;;;;;;0.90;0.68;;;17.70;99.90;;;;;;5095698;28;20103;-73
2022/06/01 08:39:52;;;;;;;0.40;0.40;;;17.90;99.90;;;;;;5095480;28;20044;-70
2022/06/01 08:42:20;;;;;;;1.50;0.80;;;17.50;99.90;;;;;;5096252;28;20044;-73
2022/06/01 08:44:48;;;;;;;0.60;0.60;;;17.20;99.90;;;;;;5095411;28;20055;-71
2022/06/01 08:47:32;;;;;;;0.40;0.40;;;16.80;99.90;;;;;;5095437;28;20055;-70
2022/06/01 08:50:01;;;;;;;0.82;0.82;;;16.40;99.90;;;;;;5094741;28;20040;-74
2022/06/01 08:52:29;;;;;;;0.30;0.30;;;16.00;99.90;;;;;;5094774;28;20044;-73
2022/06/01 08:54:55;;;;;;;0.30;0.30;;;15.40;99.90;;;;;;5095220;28;20549;-73
2022/06/01 08:57:29;;;;;;;0.40;0.40;;;15.20;99.90;;;;;;5095243;28;20341;-71
2022/06/01 09:00:12;;;;;;;0.32;0.32;;;14.70;99.90;;;;;;5095220;28;20495;-72
2022/06/01 09:03:01;;;;;;;0.40;0.40;;;14.40;99.90;;;;;;5095164;28;20036;-70
2022/06/01 09:05:36;;;;;;;0.30;0.30;;;13.90;99.90;;;;;;5095518;28;20079;-73
2022/06/01 09:08:15;;;;;;;0.30;0.30;;;13.50;99.90;;;;;;5095046;28;20066;-74
2022/06/01 09:10:59;;;;;;;0.30;0.30;;;13.20;99.90;;;;;;5094787;28;20099;-72
2022/06/01 09:13:34;;;;;;;0.40;0.40;;;13.00;99.90;;;;;;5094740;28;20101;-71
2022/06/01 09:16:26;;;;;;;0.30;0.30;;;12.80;99.90;;;;;;5094966;28;20094;-72
2022/06/01 09:18:54;;;;;;;0.30;0.30;;;12.70;99.90;;;;;;5070809;28;20138;-74
2022/06/01 09:24:08;;;;;;;0.40;0.40;;;12.60;99.90;;;;;;5094685;28;20127;-75
2022/06/01 09:26:34;;;;;;;0.30;0.30;;;12.70;99.90;;;;;;5094710;28;20048;-74
2022/06/01 09:29:02;;;;;;;0.40;0.40;;;12.90;99.90;;;;;;5094828;28;20052;-73
2022/06/01 09:31:41;;;;;;;0.40;0.40;;;12.70;99.90;;;;;;5094457;28;20389;-74
2022/06/01 09:34:25;;;;;;;0.38;0.38;;;12.90;99.90;;;;;;5094475;28;20054;-73
2022/06/01 09:37:10;;;;;;;0.40;0.40;;;12.70;99.90;;;;;;5094481;28;20044;-74
2022/06/01 09:39:39;;;;;;;0.40;0.40;;;13.10;99.90;;;;;;5094657;28;20130;-74
2022/06/01 09:42:13;;;;;;;0.40;0.40;;;12.90;99.90;;;;;;5094417;28;20040;-72
2022/06/01 09:44:44;;;;;;;0.40;0.40;;;13.20;99.90;;;;;;5094314;28;20052;-75
2022/06/01 09:47:42;;;;;;;0.30;0.30;;;13.60;99.90;;;;;;5094363;28;20127;-72
2022/06/01 09:50:20;;;;;;;0.50;0.50;;;13.90;99.90;;;;;;5094126;28;20452;-72
2022/06/01 09:52:46;;;;;;;;;;;14.30;99.90;;;;;;5094643;28;20547;-72
2022/06/01 09:55:21;;;;;;;0.50;0.50;;;14.60;99.90;;;;;;5094404;28;19998;-72
2022/06/01 09:58:09;;;;;;;0.30;0.30;;;14.80;99.90;;;;;;5094820;28;20051;-74
2022/06/01 10:06:21;;;;;;;0.30;0.30;;;15.10;99.90;;;;;;5094422;28;20052;-74
2022/06/01 10:08:59;;;;;;;0.30;0.30;;;15.30;99.90;;;;;;5093893;28;20040;-73
2022/06/01 10:11:30;;;;;;;0.30;0.30;;;15.20;99.90;;;;;;5093956;28;20052;-71
2022/06/01 10:14:16;;;;;;;0.30;0.30;;;15.50;99.90;;;;;;5093837;28;20084;-74
2022/06/01 10:17:03;;;;;;;0.30;0.30;;;15.80;99.90;;;;;;5093657;28;20097;-72
2022/06/01 10:20:04;;;;;;;0.35;0.35;;;16.00;99.90;;;;;;5093804;28;20092;-73
2022/06/01 10:22:36;;;;;;;0.30;0.30;;;15.80;99.90;;;;;;5090299;28;20091;-74
2022/06/01 10:25:23;;;;;;;0.30;0.30;;;15.70;99.90;;;;;;5093863;28;20048;-75
2022/06/01 10:27:56;;;;;;;0.30;0.30;;;15.60;99.90;;;;;;5093889;28;20132;-71
2022/06/01 10:30:36;;;;;;;0.30;0.30;;;15.50;99.90;;;;;;5092798;28;20047;-72
2022/06/01 10:33:11;;;;;;;0.30;0.30;;;15.40;99.90;;;;;;5093803;28;20097;-72
2022/06/01 10:36:05;;;;;;;0.30;0.30;;;15.30;99.90;;;;;;5093720;28;20052;-72
2022/06/01 10:38:46;;;;;;;0.30;0.30;;;15.30;99.90;;;;;;5087690;28;20095;-73
2022/06/01 10:41:20;;;;;;;0.30;0.30;;;15.60;99.90;;;;;;5093419;28;20036;-74
2022/06/01 10:43:55;;;;;;;0.30;0.30;;;15.50;99.90;;;;;;5093716;28;20040;-73
2022/06/01 10:46:23;;;;;;;0.30;0.30;;;15.50;99.90;;;;;;5093596;28;20040;-71
2022/06/01 10:49:18;;;;;;;0.30;0.30;;;15.60;99.90;;;;;;5093750;28;20044;-72
2022/06/01 10:51:53;;;;;;;0.30;0.30;;;15.70;99.90;;;;;;5093522;28;20388;-71
2022/06/01 10:54:25;;;;;;;0.30;0.30;;;15.80;99.90;;;;;;5093893;28;20040;-72
2022/06/01 10:56:51;;;;;;;0.60;0.60;;;16.00;99.90;;;;;;5093651;28;20123;-72
2022/06/01 10:59:18;;;;;;;0.40;0.40;;;16.10;99.90;;;;;;5093432;28;20130;-72
2022/06/01 11:02:26;;;;;;;0.30;0.30;;;16.40;99.90;;;;;;5093146;28;20522;-76
2022/06/01 11:05:16;;;;;;;0.30;0.30;;;16.70;99.90;;;;;;5064335;28;20052;-75
2022/06/01 11:07:58;;;;;;;0.30;0.30;;;16.90;99.90;;;;;;5093676;28;20090;-75
2022/06/01 11:10:32;;;;;;;0.30;0.30;;;17.10;99.90;;;;;;5093091;28;20472;-74
2022/06/01 11:13:12;;;;;;;0.30;0.30;;;17.30;99.90;;;;;;5095196;28;20048;-75
2022/06/01 11:16:11;;;;;;;0.35;0.35;;;17.40;99.90;;;;;;5097229;28;20058;-72
2022/06/01 11:18:42;;;;;;;0.30;0.30;;;17.40;99.90;;;;;;5097197;28;20050;-74
2022/06/01 11:21:14;;;;;;;0.32;0.32;;;17.10;99.90;;;;;;5097131;28;20044;-72
2022/06/01 11:24:11;;;;;;;0.30;0.30;;;17.10;99.90;;;;;;5097090;28;20051;-75
2022/06/01 11:26:48;;;;;;;0.22;0.22;;;16.90;99.90;;;;;;5096853;28;20495;-73
2022/06/01 11:29:25;;;;;;;0.30;0.30;;;16.70;99.90;;;;;;5096930;28;20083;-72
2022/06/01 11:31:54;;;;;;;0.30;0.30;;;16.40;99.90;;;;;;5097527;28;20150;-73
2022/06/01 11:34:32;;;;;;;0.30;0.30;;;16.20;99.90;;;;;;5097162;28;20040;-70
2022/06/01 11:37:49;;;;;;;0.30;0.30;;;15.50;99.90;;;;;;5096876;28;20506;-74
2022/06/01 11:40:23;;;;;;;0.30;0.30;;;14.90;99.90;;;;;;5083157;28;20484;-72
2022/06/01 11:43:12;;;;;;;0.30;0.30;;;14.30;99.90;;;;;;5096718;28;20040;-72
2022/06/01 11:45:44;;;;;;;0.30;0.30;;;13.90;99.90;;;;;;5096683;28;20048;-72
2022/06/01 11:48:13;;;;;;;0.40;0.40;;;13.70;99.90;;;;;;5096531;28;20114;-71
2022/06/01 11:51:06;;;;;;;0.77;0.30;;;13.40;99.90;;;;;;5096377;28;20047;-74
2022/06/01 11:53:34;;;;;;;0.30;0.30;;;13.40;99.90;;;;;;5072826;28;20404;-76
2022/06/01 11:56:30;;;;;;;0.40;0.40;;;13.20;99.90;;;;;;5096360;28;20054;-72
2022/06/01 11:58:58;;;;;;;0.40;0.40;;;13.20;99.90;;;;;;5096111;28;20087;-75
2022/06/01 12:01:46;;;;;;;0.30;0.30;;;13.20;99.90;;;;;;5096219;28;20048;-70
2022/06/01 12:04:22;;;;;;;0.40;0.40;;;13.40;99.90;;;;;;5096435;28;20395;-71
2022/06/01 12:07:03;;;;;;;0.38;0.38;;;13.60;99.90;;;;;;5096217;28;20035;-71
2022/06/01 12:09:38;;;;;;;0.30;0.30;;;13.80;99.90;;;;;;5095907;28;20044;-71
2022/06/01 12:12:05;;;;;;;0.40;0.40;;;14.30;99.90;;;;;;5096040;28;20140;-74
2022/06/01 12:14:33;;;;;;;0.40;0.40;;;14.90;99.90;;;;;;5096110;28;20051;-73
2022/06/01 12:17:23;;;;;;;0.60;0.60;;;15.50;99.90;;;;;;5095998;28;20416;-74
2022/06/01 12:20:12;;;;;;;0.40;0.40;;;16.10;99.90;;;;;;5096005;28;20043;-75
2022/06/01 12:29:07;;;;;;;0.32;0.32;;;17.30;99.90;;;;;;5095771;28;20052;-74
2022/06/01 12:31:55;;;;;;;0.30;0.30;;;17.50;99.90;;;;;;5095800;28;20528;-71
2022/06/01 12:34:30;;;;;;;0.30;0.30;;;17.70;99.90;;;;;;5095406;28;20048;-74
2022/06/01 12:37:39;;;;;;;0.30;0.30;;;17.60;99.90;;;;;;5095666;28;20044;-73
2022/06/01 12:40:13;;;;;;;0.30;0.30;;;17.50;99.90;;;;;;5085008;28;20056;-72
2022/06/01 12:43:03;;;;;;;0.30;0.30;;;17.60;99.90;;;;;;5096017;28;20043;-73
2022/06/01 12:45:41;;;;;;;0.30;0.30;;;17.60;99.90;;;;;;5095669;28;20044;-75
2022/06/01 12:48:16;;;;;;;0.30;0.30;;;17.50;99.90;;;;;;5095488;28;20090;-71
2022/06/01 12:51:02;;;;;;;0.30;0.30;;;17.20;99.90;;;;;;5095283;28;20047;-73
2022/06/01 12:53:50;;;;;;;0.30;0.30;;;17.00;99.90;;;;;;5095577;28;20047;-72
2022/06/01 12:56:27;;;;;;;0.30;0.30;;;17.40;99.90;;;;;;5095251;28;20038;-76
2022/06/01 12:58:54;;;;;;;0.30;0.30;;;17.50;99.90;;;;;;5094971;28;20093;-72
2022/06/01 13:01:27;;;;;;;0.50;0.50;;;17.80;99.90;;;;;;5095010;28;20476;-75
2022/06/01 13:03:57;;;;;;;0.30;0.30;;;18.00;99.90;;;;;;5095133;28;20044;-75
2022/06/01 13:06:26;;;;;;;0.30;0.30;;;18.20;99.90;;;;;;5093943;28;20055;-74
2022/06/01 13:09:04;;;;;;;0.30;0.30;;;18.40;99.90;;;;;;5095085;28;20036;-76
2022/06/01 13:11:32;;;;;;;0.30;0.30;;;18.40;99.90;;;;;;5094823;28;20439;-72
2022/06/01 13:14:04;;;;;;;0.30;0.30;;;18.40;99.90;;;;;;5094867;28;20063;-73
2022/06/01 13:16:42;;;;;;;0.30;0.30;;;18.40;99.90;;;;;;5095192;28;20044;-73
2022/06/01 13:19:21;;;;;;;0.30;0.30;;;18.40;99.90;;;;;;5095073;28;20373;-71
2022/06/01 13:21:53;;;;;;;0.30;0.30;;;18.50;99.90;;;;;;5094719;28;20048;-74
2022/06/01 13:24:21;;;;;;;0.25;0.25;;;18.40;99.90;;;;;;5094762;28;20040;-74
2022/06/01 13:26:50;;;;;;;0.30;0.30;;;18.30;99.90;;;;;;5095094;28;20040;-75
2022/06/01 13:29:31;;;;;;;0.30;0.30;;;18.50;99.90;;;;;;5094622;28;20044;-74
2022/06/01 13:32:06;;;;;;;0.30;0.30;;;18.40;99.90;;;;;;5094806;28;20044;-72
2022/06/01 13:34:47;;;;;;;0.40;0.40;;;18.40;99.90;;;;;;5094585;28;20127;-74
2022/06/01 13:37:18;;;;;;;0.30;0.30;;;18.50;99.90;;;;;;5093448;28;20070;-73
2022/06/01 13:39:58;;;;;;;0.30;0.30;;;18.50;99.90;;;;;;5094424;28;20047;-72
2022/06/01 13:42:34;;;;;;;0.30;0.30;;;18.50;99.90;;;;;;5094493;28;20463;-74
2022/06/01 13:45:11;;;;;;;0.30;0.30;;;18.00;99.90;;;;;;5094346;28;20055;-73
2022/06/01 13:47:46;;;;;;;;;;;17.70;99.90;;;;;;5095161;28;20044;-71